Time;durP1;ratioP1;P1;durP2;ratioP2;P2;SDS_P1;SDS_P2;PMS_P1;PMS_P2;Temp;Humidity;BMP_temperature;BMP_pressure;BME280_temperature;BME280_humidity;BME280_pressure;Samples;Min_cycle;Max_cycle;Signal;HPM_P1;HPM_P2
2021/11/22 00:01:15;;;;;;;3.90;1.00;;;;;;;;;;5000457;28;20266;-70
2021/11/22 00:03:42;;;;;;;7.20;1.10;;;;;;;;;;4998802;28;20683;-71
2021/11/22 00:06:08;;;;;;;4.30;0.80;;;;;;;;;;4999737;28;20219;-70
2021/11/22 00:08:34;;;;;;;4.90;1.00;;;;;;;;;;5000156;28;20458;-71
2021/11/22 00:11:02;;;;;;;6.97;0.90;;;;;;;;;;4999779;28;20266;-71
2021/11/22 00:13:28;;;;;;;2.77;0.80;;;;;;;;;;4999375;28;20262;-70
2021/11/22 00:15:55;;;;;;;5.87;1.03;;;;;;;;;;5000373;28;20274;-71
2021/11/22 00:18:23;;;;;;;4.47;0.87;;;;;;;;;;4998832;28;20224;-71
2021/11/22 00:20:49;;;;;;;2.63;0.80;;;;;;;;;;5000197;28;20578;-70
2021/11/22 00:23:16;;;;;;;5.27;1.00;;;;;;;;;;5000711;28;20247;-71
2021/11/22 00:25:42;;;;;;;5.40;0.97;;;;;;;;;;4999152;28;20223;-71
2021/11/22 00:28:10;;;;;;;5.00;0.77;;;;;;;;;;4999228;28;20244;-70
2021/11/22 00:30:37;;;;;;;3.73;1.07;;;;;;;;;;5001147;28;20238;-70
2021/11/22 00:33:04;;;;;;;5.20;1.00;;;;;;;;;;5003288;28;20262;-70
2021/11/22 00:35:33;;;;;;;3.73;1.00;;;;;;;;;;5002895;28;20212;-70
2021/11/22 00:38:00;;;;;;;3.70;1.13;;;;;;;;;;5003497;28;20773;-70
2021/11/22 00:40:27;;;;;;;2.53;1.27;;;;;;;;;;5003066;28;20311;-70
2021/11/22 00:42:53;;;;;;;4.77;1.20;;;;;;;;;;5002472;28;20825;-70
2021/11/22 00:45:21;;;;;;;6.47;1.30;;;;;;;;;;5003923;28;20796;-71
2021/11/22 00:47:48;;;;;;;6.53;1.50;;;;;;;;;;5003435;28;20243;-70
2021/11/22 00:50:15;;;;;;;7.50;1.07;;;;;;;;;;5002745;28;20220;-70
2021/11/22 00:52:41;;;;;;;3.90;0.90;;;;;;;;;;5003174;28;20314;-70
2021/11/22 00:55:09;;;;;;;5.63;1.17;;;;;;;;;;5003945;28;20551;-70
2021/11/22 00:57:35;;;;;;;5.77;1.27;;;;;;;;;;5002399;28;20212;-70
2021/11/22 01:00:02;;;;;;;7.63;1.57;;;;;;;;;;5003373;28;20208;-70
2021/11/22 01:02:30;;;;;;;4.40;1.13;;;;;;;;;;5003360;28;20235;-70
2021/11/22 01:04:56;;;;;;;7.27;1.40;;;;;;;;;;5002420;28;20290;-70
2021/11/22 01:07:22;;;;;;;5.13;1.13;;;;;;;;;;5003350;28;20211;-70
2021/11/22 01:09:49;;;;;;;5.40;1.23;;;;;;;;;;5003377;28;20289;-70
2021/11/22 01:12:15;;;;;;;6.40;1.20;;;;;;;;;;5002028;28;20219;-70
2021/11/22 01:14:42;;;;;;;3.67;1.10;;;;;;;;;;5002487;28;20211;-71
2021/11/22 01:17:08;;;;;;;3.73;1.30;;;;;;;;;;5002554;28;20279;-70
2021/11/22 01:19:36;;;;;;;5.67;1.30;;;;;;;;;;5002273;28;20683;-70
2021/11/22 01:22:03;;;;;;;4.27;0.97;;;;;;;;;;5002155;28;20212;-70
2021/11/22 01:24:29;;;;;;;5.57;1.23;;;;;;;;;;5002823;28;20208;-70
2021/11/22 01:26:56;;;;;;;6.20;1.73;;;;;;;;;;5002140;28;20216;-72
2021/11/22 01:29:22;;;;;;;4.37;1.20;;;;;;;;;;5001994;28;20246;-70
2021/11/22 01:31:49;;;;;;;4.60;1.33;;;;;;;;;;5003065;28;20626;-70
2021/11/22 01:34:15;;;;;;;2.77;1.13;;;;;;;;;;5002110;28;20235;-70
2021/11/22 01:36:43;;;;;;;4.33;0.97;;;;;;;;;;5001418;28;20272;-70
2021/11/22 01:39:09;;;;;;;3.40;0.97;;;;;;;;;;5002405;28;20204;-70
2021/11/22 01:41:36;;;;;;;3.03;0.90;;;;;;;;;;5001359;28;20204;-70
2021/11/22 01:44:02;;;;;;;4.73;1.00;;;;;;;;;;5001485;28;20212;-70
2021/11/22 01:46:29;;;;;;;4.13;1.27;;;;;;;;;;5002271;28;20745;-70
2021/11/22 01:48:56;;;;;;;5.03;1.10;;;;;;;;;;5001871;28;20318;-70
2021/11/22 01:51:22;;;;;;;4.97;1.40;;;;;;;;;;5001773;28;20216;-70
2021/11/22 01:53:50;;;;;;;6.97;1.17;;;;;;;;;;5001957;28;20781;-70
2021/11/22 01:56:17;;;;;;;3.03;1.07;;;;;;;;;;5002390;28;20208;-70
2021/11/22 01:58:43;;;;;;;3.80;1.20;;;;;;;;;;5000859;28;20255;-70
2021/11/22 02:01:10;;;;;;;4.30;1.17;;;;;;;;;;5002255;28;20579;-70
2021/11/22 02:03:36;;;;;;;5.33;1.30;;;;;;;;;;5001508;28;20236;-71
2021/11/22 02:06:03;;;;;;;6.10;1.10;;;;;;;;;;5001189;28;20270;-70
2021/11/22 02:08:29;;;;;;;5.37;1.20;;;;;;;;;;5000979;28;20234;-70
2021/11/22 02:10:57;;;;;;;7.60;1.97;;;;;;;;;;5001942;28;20235;-72
2021/11/22 02:13:23;;;;;;;5.53;1.53;;;;;;;;;;5001198;28;20224;-72
2021/11/22 02:15:51;;;;;;;4.57;1.20;;;;;;;;;;5001054;28;20211;-71
2021/11/22 02:18:19;;;;;;;4.70;1.00;;;;;;;;;;5001512;28;20235;-70
2021/11/22 02:20:48;;;;;;;4.23;1.43;;;;;;;;;;5001112;28;20205;-70
2021/11/22 02:23:15;;;;;;;4.83;1.00;;;;;;;;;;5000372;28;20208;-70
2021/11/22 02:25:43;;;;;;;4.17;0.90;;;;;;;;;;5001867;28;20298;-70
2021/11/22 02:28:11;;;;;;;7.43;1.20;;;;;;;;;;5001365;28;20238;-70
2021/11/22 02:30:41;;;;;;;5.60;1.10;;;;;;;;;;5000510;28;20212;-70
2021/11/22 02:33:10;;;;;;;6.93;1.03;;;;;;;;;;5001029;28;20289;-70
2021/11/22 02:35:39;;;;;;;1.80;0.77;;;;;;;;;;5001617;28;20671;-70
2021/11/22 02:38:07;;;;;;;5.67;0.97;;;;;;;;;;5000993;28;20231;-71
2021/11/22 02:40:33;;;;;;;4.53;1.10;;;;;;;;;;5000800;28;20211;-71
2021/11/22 02:43:00;;;;;;;4.37;0.70;;;;;;;;;;5001315;28;20270;-71
2021/11/22 02:45:27;;;;;;;4.03;0.90;;;;;;;;;;5000692;28;20359;-71
2021/11/22 02:47:54;;;;;;;8.73;1.10;;;;;;;;;;5000431;28;20825;-71
2021/11/22 02:50:21;;;;;;;2.60;0.90;;;;;;;;;;5001672;28;20232;-71
2021/11/22 02:52:50;;;;;;;3.07;0.90;;;;;;;;;;5000886;28;20208;-71
2021/11/22 02:55:19;;;;;;;5.37;0.90;;;;;;;;;;4999590;28;20224;-71
2021/11/22 02:57:45;;;;;;;4.97;1.10;;;;;;;;;;5001336;28;20507;-71
2021/11/22 03:00:14;;;;;;;4.23;0.83;;;;;;;;;;5000468;28;20570;-71
2021/11/22 03:02:41;;;;;;;3.73;0.60;;;;;;;;;;5000265;28;20709;-71
2021/11/22 03:05:09;;;;;;;5.03;1.00;;;;;;;;;;5001368;28;20215;-71
2021/11/22 03:07:36;;;;;;;3.73;0.80;;;;;;;;;;5000625;28;20219;-71
2021/11/22 03:10:03;;;;;;;3.50;0.63;;;;;;;;;;5000193;28;20325;-71
2021/11/22 03:12:31;;;;;;;4.37;0.90;;;;;;;;;;5000609;28;20269;-71
2021/11/22 03:14:57;;;;;;;3.37;1.00;;;;;;;;;;5001248;28;20690;-71
2021/11/22 03:17:24;;;;;;;4.47;0.80;;;;;;;;;;4999736;28;20899;-71
2021/11/22 03:19:50;;;;;;;4.13;0.87;;;;;;;;;;5000532;28;20762;-71
2021/11/22 03:22:17;;;;;;;2.37;0.67;;;;;;;;;;5000891;28;20265;-71
2021/11/22 03:24:43;;;;;;;4.57;0.90;;;;;;;;;;4999926;28;20278;-71
2021/11/22 03:27:10;;;;;;;4.60;0.90;;;;;;;;;;5000025;28;20219;-71
2021/11/22 03:29:38;;;;;;;4.70;0.93;;;;;;;;;;5000283;28;20223;-71
2021/11/22 03:32:05;;;;;;;3.50;0.53;;;;;;;;;;4999487;28;20216;-71
2021/11/22 03:34:31;;;;;;;3.30;0.73;;;;;;;;;;5000334;28;20216;-71
2021/11/22 03:37:02;;;;;;;2.67;0.97;;;;;;;;;;5000794;28;20270;-71
2021/11/22 03:39:30;;;;;;;4.20;0.50;;;;;;;;;;4999742;28;21088;-71
2021/11/22 03:41:59;;;;;;;2.87;0.50;;;;;;;;;;4999275;28;20208;-71
2021/11/22 03:44:25;;;;;;;4.33;0.70;;;;;;;;;;5001187;28;20216;-71
2021/11/22 03:46:55;;;;;;;1.97;0.50;;;;;;;;;;5000610;28;20219;-71
2021/11/22 03:49:22;;;;;;;5.20;0.63;;;;;;;;;;4999414;28;20227;-71
2021/11/22 03:51:49;;;;;;;4.97;0.70;;;;;;;;;;5000203;28;20795;-71
2021/11/22 03:54:16;;;;;;;2.23;0.90;;;;;;;;;;5000143;28;20274;-71
2021/11/22 03:56:43;;;;;;;3.07;0.50;;;;;;;;;;4998837;28;20211;-71
2021/11/22 03:59:11;;;;;;;2.67;0.50;;;;;;;;;;5000236;28;20290;-71
2021/11/22 04:01:38;;;;;;;2.63;0.63;;;;;;;;;;5000166;28;20207;-71
2021/11/22 04:04:07;;;;;;;3.27;0.80;;;;;;;;;;4998938;28;20238;-71
2021/11/22 04:06:34;;;;;;;3.00;0.80;;;;;;;;;;5002122;28;20687;-71
2021/11/22 04:09:00;;;;;;;5.10;0.80;;;;;;;;;;5003778;28;20227;-71
2021/11/22 04:11:27;;;;;;;2.23;0.67;;;;;;;;;;5002482;28;20220;-73
2021/11/22 04:13:54;;;;;;;6.17;0.50;;;;;;;;;;5003194;28;20273;-73
2021/11/22 04:16:21;;;;;;;4.53;0.70;;;;;;;;;;5003803;28;20227;-73
2021/11/22 04:18:48;;;;;;;4.17;0.60;;;;;;;;;;5002259;28;20810;-73
2021/11/22 04:21:18;;;;;;;2.60;0.50;;;;;;;;;;5002842;28;20900;-73
2021/11/22 04:23:45;;;;;;;6.03;0.90;;;;;;;;;;5003390;28;20498;-73
2021/11/22 04:26:12;;;;;;;2.60;1.00;;;;;;;;;;5003006;28;20265;-73
2021/11/22 04:28:38;;;;;;;2.93;0.57;;;;;;;;;;5002369;28;20372;-73
2021/11/22 04:31:07;;;;;;;3.43;0.80;;;;;;;;;;5003519;28;20231;-71
2021/11/22 04:33:36;;;;;;;3.87;0.77;;;;;;;;;;5003195;28;20789;-71
2021/11/22 04:36:02;;;;;;;6.47;1.10;;;;;;;;;;5002999;28;20670;-71
2021/11/22 04:38:30;;;;;;;2.37;1.10;;;;;;;;;;5003062;28;20274;-71
2021/11/22 04:40:56;;;;;;;2.60;0.73;;;;;;;;;;5003944;28;20208;-71
2021/11/22 04:43:23;;;;;;;3.53;0.87;;;;;;;;;;5001955;28;20262;-71
2021/11/22 04:45:49;;;;;;;5.00;0.70;;;;;;;;;;5003335;28;20220;-71
2021/11/22 04:48:16;;;;;;;2.97;0.57;;;;;;;;;;5003159;28;20297;-71
2021/11/22 04:50:42;;;;;;;4.27;0.87;;;;;;;;;;5002602;28;20224;-71
2021/11/22 04:53:09;;;;;;;4.03;0.63;;;;;;;;;;5003196;28;20262;-71
2021/11/22 04:55:36;;;;;;;8.00;0.80;;;;;;;;;;5003551;28;20207;-71
2021/11/22 04:58:03;;;;;;;5.40;0.80;;;;;;;;;;5002830;28;20278;-71
2021/11/22 05:00:31;;;;;;;4.40;1.07;;;;;;;;;;5002407;28;20212;-71
2021/11/22 05:02:57;;;;;;;5.57;0.70;;;;;;;;;;5003732;28;20231;-71
2021/11/22 05:05:24;;;;;;;4.33;0.93;;;;;;;;;;5002352;28;20216;-71
2021/11/22 05:07:51;;;;;;;2.80;0.80;;;;;;;;;;5003181;28;20274;-71
2021/11/22 05:10:19;;;;;;;2.50;0.80;;;;;;;;;;5003623;28;20317;-71
2021/11/22 05:12:47;;;;;;;6.43;0.80;;;;;;;;;;5002741;28;20220;-71
2021/11/22 05:15:14;;;;;;;2.60;0.73;;;;;;;;;;5002291;28;20632;-71
2021/11/22 05:17:41;;;;;;;5.13;0.80;;;;;;;;;;5000824;28;20302;-71
2021/11/22 05:20:08;;;;;;;7.73;1.13;;;;;;;;;;5002530;28;20303;-73
2021/11/22 05:22:35;;;;;;;3.03;0.83;;;;;;;;;;5001450;28;20217;-73
2021/11/22 05:25:03;;;;;;;3.60;0.87;;;;;;;;;;5003162;28;20282;-73
2021/11/22 05:27:30;;;;;;;2.33;0.90;;;;;;;;;;5002478;28;20241;-73
2021/11/22 05:29:58;;;;;;;5.00;0.87;;;;;;;;;;5001757;28;20235;-73
2021/11/22 05:32:25;;;;;;;3.85;0.90;;;;;;;;;;5001034;28;20856;-76
2021/11/22 05:34:53;;;;;;;3.93;1.00;;;;;;;;;;5002698;28;20261;-74
2021/11/22 05:37:20;;;;;;;11.53;1.13;;;;;;;;;;5002152;28;20801;-74
2021/11/22 05:39:47;;;;;;;2.73;0.70;;;;;;;;;;5001945;28;20224;-73
2021/11/22 05:42:14;;;;;;;3.23;0.70;;;;;;;;;;5002053;28;20208;-74
2021/11/22 05:44:41;;;;;;;3.97;0.90;;;;;;;;;;5001814;28;20211;-74
2021/11/22 05:47:11;;;;;;;2.80;0.70;;;;;;;;;;5001914;28;20220;-74
2021/11/22 05:49:38;;;;;;;6.13;0.83;;;;;;;;;;5002692;28;20753;-75
2021/11/22 05:52:07;;;;;;;3.80;0.87;;;;;;;;;;5002040;28;20274;-74
2021/11/22 05:54:37;;;;;;;4.90;0.70;;;;;;;;;;5001647;28;21372;-75
2021/11/22 05:57:04;;;;;;;2.27;0.80;;;;;;;;;;5002393;28;20674;-74
2021/11/22 05:59:30;;;;;;;4.53;1.20;;;;;;;;;;5002223;28;20212;-74
2021/11/22 06:01:56;;;;;;;4.20;1.00;;;;;;;;;;5001500;28;20270;-74
2021/11/22 06:04:24;;;;;;;6.23;1.20;;;;;;;;;;5002582;28;20587;-74
2021/11/22 06:06:52;;;;;;;3.03;0.77;;;;;;;;;;5002571;28;20211;-74
2021/11/22 06:09:19;;;;;;;3.60;0.70;;;;;;;;;;5001180;28;20222;-74
2021/11/22 06:11:45;;;;;;;2.00;1.00;;;;;;;;;;5001556;28;20568;-75
2021/11/22 06:14:12;;;;;;;4.90;0.93;;;;;;;;;;5001898;28;20270;-74
2021/11/22 06:16:38;;;;;;;1.60;0.90;;;;;;;;;;5000981;28;20777;-74
2021/11/22 06:19:04;;;;;;;4.03;0.97;;;;;;;;;;5001057;28;20240;-74
2021/11/22 06:21:32;;;;;;;6.53;1.10;;;;;;;;;;5001423;28;20204;-75
2021/11/22 06:24:01;;;;;;;5.13;1.30;;;;;;;;;;5000708;28;20357;-74
2021/11/22 06:26:27;;;;;;;4.73;1.07;;;;;;;;;;5001370;28;20295;-74
2021/11/22 06:28:54;;;;;;;3.60;1.07;;;;;;;;;;5002119;28;20211;-74
2021/11/22 06:31:20;;;;;;;2.53;1.10;;;;;;;;;;5000387;28;20828;-75
2021/11/22 06:33:47;;;;;;;2.47;1.33;;;;;;;;;;5001207;28;20234;-74
2021/11/22 06:36:13;;;;;;;5.17;1.93;;;;;;;;;;5001441;28;20247;-74
2021/11/22 06:38:41;;;;;;;4.93;2.60;;;;;;;;;;5000399;28;20262;-74
2021/11/22 06:41:08;;;;;;;6.10;2.80;;;;;;;;;;5000408;28;20286;-74
2021/11/22 06:43:34;;;;;;;7.23;4.70;;;;;;;;;;5000471;28;20263;-75
2021/11/22 06:46:00;;;;;;;8.10;4.80;;;;;;;;;;4999828;28;20270;-74
2021/11/22 06:48:27;;;;;;;5.87;4.10;;;;;;;;;;4999984;28;20290;-75
2021/11/22 06:50:53;;;;;;;8.67;3.50;;;;;;;;;;5000962;28;20287;-74
2021/11/22 06:53:21;;;;;;;6.50;3.10;;;;;;;;;;5000330;28;20215;-77
2021/11/22 06:55:49;;;;;;;6.30;3.30;;;;;;;;;;4999692;28;20203;-74
2021/11/22 06:58:16;;;;;;;9.00;3.67;;;;;;;;;;4999962;28;20263;-75
2021/11/22 07:00:42;;;;;;;5.23;3.83;;;;;;;;;;4998088;28;20678;-74
2021/11/22 07:03:09;;;;;;;7.13;2.60;;;;;;;;;;4997159;28;20228;-74
2021/11/22 07:05:35;;;;;;;4.90;2.00;;;;;;;;;;4999326;28;20212;-74
2021/11/22 07:08:04;;;;;;;8.43;2.33;;;;;;;;;;4997767;28;20215;-73
2021/11/22 07:10:31;;;;;;;5.93;2.90;;;;;;;;;;4999459;28;20227;-74
2021/11/22 07:12:59;;;;;;;6.43;2.47;;;;;;;;;;4999270;28;20215;-74
2021/11/22 07:15:33;;;;;;;5.97;2.43;;;;;;;;;;4997942;28;20215;-74
2021/11/22 07:17:59;;;;;;;4.63;1.70;;;;;;;;;;4998056;28;20220;-74
2021/11/22 07:20:25;;;;;;;3.57;1.10;;;;;;;;;;4997499;28;20216;-74
2021/11/22 07:22:52;;;;;;;5.43;1.00;;;;;;;;;;4998518;28;20278;-75
2021/11/22 07:25:19;;;;;;;1.93;0.83;;;;;;;;;;4998233;28;20302;-75
2021/11/22 07:27:46;;;;;;;2.63;0.83;;;;;;;;;;4998326;28;20315;-74
2021/11/22 07:30:18;;;;;;;3.83;1.43;;;;;;;;;;4998459;28;20339;-74
2021/11/22 07:32:45;;;;;;;6.40;2.37;;;;;;;;;;4997047;28;21075;-74
2021/11/22 07:35:11;;;;;;;5.67;2.07;;;;;;;;;;4998681;28;20261;-73
2021/11/22 07:37:39;;;;;;;4.40;2.87;;;;;;;;;;4997166;28;20270;-73
2021/11/22 07:40:07;;;;;;;4.67;1.80;;;;;;;;;;4997173;28;20220;-74
2021/11/22 07:42:33;;;;;;;4.13;2.23;;;;;;;;;;4997993;28;20212;-73
2021/11/22 07:44:59;;;;;;;6.37;2.33;;;;;;;;;;4997710;28;20679;-74
2021/11/22 07:47:27;;;;;;;8.87;3.20;;;;;;;;;;4997406;28;20235;-74
2021/11/22 07:49:54;;;;;;;3.60;2.83;;;;;;;;;;4997017;28;20226;-74
2021/11/22 07:52:22;;;;;;;4.53;1.10;;;;;;;;;;4997501;28;20628;-74
2021/11/22 07:54:49;;;;;;;5.67;1.40;;;;;;;;;;4998703;28;20947;-74
2021/11/22 07:57:15;;;;;;;3.73;0.93;;;;;;;;;;4997009;28;20259;-74
2021/11/22 07:59:42;;;;;;;3.37;1.50;;;;;;;;;;4997453;28;20220;-74
2021/11/22 08:02:08;;;;;;;6.13;3.23;;;;;;;;;;4996293;28;20219;-74
2021/11/22 08:04:36;;;;;;;7.17;3.33;;;;;;;;;;4997872;28;20235;-74
2021/11/22 08:07:10;;;;;;;11.23;4.00;;;;;;;;;;4998314;28;20211;-74
2021/11/22 08:09:43;;;;;;;7.23;2.87;;;;;;;;;;4997336;28;20566;-74
2021/11/22 08:12:25;;;;;;;6.27;2.80;;;;;;;;;;4997973;28;20226;-73
2021/11/22 08:14:53;;;;;;;6.70;2.83;;;;;;;;;;4997228;28;20211;-74
2021/11/22 08:17:19;;;;;;;7.50;3.80;;;;;;;;;;4996185;28;20510;-74
2021/11/22 08:19:47;;;;;;;5.10;3.30;;;;;;;;;;4996864;28;20219;-74
2021/11/22 08:22:13;;;;;;;9.27;4.10;;;;;;;;;;4995883;28;20258;-74
2021/11/22 08:24:40;;;;;;;8.83;3.40;;;;;;;;;;4996852;28;20664;-75
2021/11/22 08:27:06;;;;;;;5.90;1.90;;;;;;;;;;4995701;28;20284;-74
2021/11/22 08:29:34;;;;;;;7.23;3.80;;;;;;;;;;4996806;28;20208;-75
2021/11/22 08:32:00;;;;;;;7.50;3.17;;;;;;;;;;4996449;28;20243;-74
2021/11/22 08:34:27;;;;;;;5.70;2.03;;;;;;;;;;4995924;28;20287;-74
2021/11/22 08:36:54;;;;;;;8.20;2.57;;;;;;;;;;4998348;28;20216;-74
2021/11/22 08:39:21;;;;;;;7.90;2.40;;;;;;;;;;4996800;28;20266;-75
2021/11/22 08:41:47;;;;;;;5.30;1.93;;;;;;;;;;4998254;28;20211;-74
2021/11/22 08:44:14;;;;;;;6.33;2.43;;;;;;;;;;4996942;28;20766;-74
2021/11/22 08:46:41;;;;;;;4.40;1.60;;;;;;;;;;4997524;28;20592;-74
2021/11/22 08:49:08;;;;;;;5.23;1.33;;;;;;;;;;4997000;28;20248;-74
2021/11/22 08:51:34;;;;;;;4.60;1.17;;;;;;;;;;4998658;28;20232;-74
2021/11/22 08:54:02;;;;;;;3.57;1.53;;;;;;;;;;5001584;28;20216;-75
2021/11/22 08:56:29;;;;;;;6.90;1.57;;;;;;;;;;5001020;28;20633;-77
2021/11/22 08:58:55;;;;;;;2.50;1.50;;;;;;;;;;5001719;28;20270;-74
2021/11/22 09:01:22;;;;;;;3.03;1.20;;;;;;;;;;5000976;28;20208;-74
2021/11/22 09:03:51;;;;;;;6.97;1.30;;;;;;;;;;5000337;28;20258;-73
2021/11/22 09:06:18;;;;;;;3.53;1.30;;;;;;;;;;5001851;28;20536;-73
2021/11/22 09:08:45;;;;;;;5.27;1.40;;;;;;;;;;5000027;28;20219;-73
2021/11/22 09:11:13;;;;;;;4.23;1.20;;;;;;;;;;5000828;28;20236;-73
2021/11/22 09:13:39;;;;;;;4.07;1.10;;;;;;;;;;5000368;28;20251;-73
2021/11/22 09:16:06;;;;;;;4.00;1.23;;;;;;;;;;5000421;28;20332;-74
2021/11/22 09:18:33;;;;;;;4.47;1.73;;;;;;;;;;5000585;28;20289;-74
2021/11/22 09:20:59;;;;;;;2.77;1.17;;;;;;;;;;4999710;28;20212;-73
2021/11/22 09:23:26;;;;;;;5.13;1.23;;;;;;;;;;5000884;28;20623;-74
2021/11/22 09:25:53;;;;;;;4.43;1.83;;;;;;;;;;5000372;28;20655;-74
2021/11/22 09:28:21;;;;;;;5.47;1.90;;;;;;;;;;5000197;28;20341;-74
2021/11/22 09:30:47;;;;;;;3.97;1.53;;;;;;;;;;5000368;28;20597;-74
2021/11/22 09:33:15;;;;;;;4.43;1.43;;;;;;;;;;4999025;28;20232;-74
2021/11/22 09:35:41;;;;;;;4.50;1.80;;;;;;;;;;5000772;28;20928;-74
2021/11/22 09:38:08;;;;;;;5.63;2.17;;;;;;;;;;5000031;28;20223;-75
2021/11/22 09:40:36;;;;;;;4.70;1.50;;;;;;;;;;5000196;28;20271;-74
2021/11/22 09:43:04;;;;;;;3.67;1.13;;;;;;;;;;5000101;28;20205;-74
2021/11/22 09:45:32;;;;;;;5.80;1.33;;;;;;;;;;4999977;28;20227;-73
2021/11/22 09:48:00;;;;;;;3.40;1.33;;;;;;;;;;5000984;28;20267;-73
2021/11/22 09:50:29;;;;;;;4.60;1.30;;;;;;;;;;4999014;28;20295;-73
2021/11/22 09:52:56;;;;;;;3.30;0.90;;;;;;;;;;5000294;28;20677;-73
2021/11/22 09:55:24;;;;;;;3.33;1.00;;;;;;;;;;5000116;28;20212;-74
2021/11/22 09:57:50;;;;;;;3.00;1.20;;;;;;;;;;4999733;28;20224;-74
2021/11/22 10:00:17;;;;;;;3.13;1.50;;;;;;;;;;5000482;28;20210;-76
2021/11/22 10:02:49;;;;;;;7.17;1.20;;;;;;;;;;4999214;28;20730;-74
2021/11/22 10:05:21;;;;;;;2.50;0.90;;;;;;;;;;4999725;28;20225;-74
2021/11/22 10:08:00;;;;;;;6.23;1.50;;;;;;;;;;5000264;28;20988;-74
2021/11/22 10:10:32;;;;;;;4.43;1.43;;;;;;;;;;4999096;28;20235;-76
2021/11/22 10:12:59;;;;;;;4.10;1.27;;;;;;;;;;5000610;28;20254;-77
2021/11/22 10:15:25;;;;;;;5.60;1.27;;;;;;;;;;4998679;28;20273;-77
2021/11/22 10:17:53;;;;;;;4.87;1.37;;;;;;;;;;4999348;28;20843;-76
2021/11/22 10:20:21;;;;;;;5.27;1.30;;;;;;;;;;4999401;28;20215;-77
2021/11/22 10:22:52;;;;;;;4.47;1.30;;;;;;;;;;4998883;28;20211;-76
2021/11/22 10:25:31;;;;;;;5.27;1.23;;;;;;;;;;4999988;28;20736;-77
2021/11/22 10:28:02;;;;;;;2.87;1.13;;;;;;;;;;4998518;28;20221;-77
2021/11/22 10:30:31;;;;;;;4.43;1.23;;;;;;;;;;4998590;28;20226;-76
2021/11/22 10:33:02;;;;;;;4.93;1.20;;;;;;;;;;4998479;28;20234;-76
2021/11/22 10:35:32;;;;;;;4.57;0.83;;;;;;;;;;4998174;28;20274;-76
2021/11/22 10:38:01;;;;;;;2.83;1.13;;;;;;;;;;4998998;28;20214;-76
2021/11/22 10:40:29;;;;;;;4.00;1.00;;;;;;;;;;4997654;28;20288;-76
2021/11/22 10:42:57;;;;;;;4.13;1.00;;;;;;;;;;4999459;28;20270;-76
2021/11/22 10:45:29;;;;;;;2.43;0.67;;;;;;;;;;4997502;28;20334;-75
2021/11/22 10:48:10;;;;;;;2.30;1.00;;;;;;;;;;4998968;28;20235;-76
2021/11/22 10:50:37;;;;;;;2.30;0.90;;;;;;;;;;4998696;28;20215;-75
2021/11/22 10:53:04;;;;;;;3.90;0.90;;;;;;;;;;4998608;28;20794;-75
2021/11/22 10:55:44;;;;;;;5.37;1.20;;;;;;;;;;4998903;28;20675;-75
2021/11/22 10:58:30;;;;;;;5.10;0.87;;;;;;;;;;4997795;28;20222;-74
2021/11/22 11:00:56;;;;;;;4.67;1.30;;;;;;;;;;4998988;28;20712;-75
2021/11/22 11:03:28;;;;;;;5.70;0.90;;;;;;;;;;4995977;28;20239;-74
2021/11/22 11:05:58;;;;;;;3.67;1.37;;;;;;;;;;4998686;28;20263;-75
2021/11/22 11:08:29;;;;;;;2.13;0.80;;;;;;;;;;4995818;28;20207;-74
2021/11/22 11:11:08;;;;;;;4.60;1.20;;;;;;;;;;4998015;28;20595;-74
2021/11/22 11:13:43;;;;;;;4.77;1.10;;;;;;;;;;4996839;28;20224;-74
2021/11/22 11:16:11;;;;;;;3.50;0.80;;;;;;;;;;4995952;28;20211;-75
2021/11/22 11:18:39;;;;;;;3.63;0.90;;;;;;;;;;4996887;28;20342;-75
2021/11/22 11:21:05;;;;;;;2.00;0.73;;;;;;;;;;4997607;28;20290;-75
2021/11/22 11:23:32;;;;;;;3.23;1.00;;;;;;;;;;4997461;28;20212;-74
2021/11/22 11:25:59;;;;;;;2.30;0.60;;;;;;;;;;4997057;28;20232;-73
2021/11/22 11:28:26;;;;;;;3.83;0.93;;;;;;;;;;4997271;28;20207;-72
2021/11/22 11:30:53;;;;;;;5.27;0.80;;;;;;;;;;4996574;28;20234;-73
2021/11/22 11:33:19;;;;;;;4.37;1.20;;;;;;;;;;4997103;28;20241;-72
2021/11/22 11:35:48;;;;;;;11.60;1.37;;;;;;;;;;4997189;28;20215;-73
2021/11/22 11:38:24;;;;;;;1.93;1.00;;;;;;;;;;4997223;28;20219;-72
2021/11/22 11:41:05;;;;;;;3.13;0.90;;;;;;;;;;4997476;28;20281;-73
2021/11/22 11:43:59;;;;;;;3.40;0.80;;;;;;;;;;4996562;28;20225;-72
2021/11/22 11:46:37;;;;;;;3.23;1.10;;;;;;;;;;4997105;28;20208;-73
2021/11/22 11:49:07;;;;;;;3.33;0.83;;;;;;;;;;4996591;28;20328;-75
2021/11/22 11:51:39;;;;;;;5.10;1.00;;;;;;;;;;4997129;28;20994;-72
2021/11/22 11:54:09;;;;;;;3.10;1.03;;;;;;;;;;4996466;28;20215;-72
2021/11/22 11:56:39;;;;;;;2.10;0.77;;;;;;;;;;4997161;28;20226;-72
2021/11/22 11:59:14;;;;;;;1.20;0.70;;;;;;;;;;4996686;28;20575;-72
2021/11/22 12:01:59;;;;;;;2.77;0.87;;;;;;;;;;4996529;28;20280;-72
2021/11/22 12:04:26;;;;;;;4.20;0.90;;;;;;;;;;4998144;28;21364;-74
2021/11/22 12:06:56;;;;;;;3.17;0.80;;;;;;;;;;4997429;28;20265;-72
2021/11/22 12:09:35;;;;;;;4.20;1.10;;;;;;;;;;4997210;28;20240;-72
2021/11/22 12:12:20;;;;;;;3.60;0.67;;;;;;;;;;4996797;28;20235;-72
2021/11/22 12:14:52;;;;;;;6.53;0.83;;;;;;;;;;4996780;28;20212;-72
2021/11/22 12:17:48;;;;;;;4.33;0.77;;;;;;;;;;4996109;28;20805;-72
2021/11/22 12:20:43;;;;;;;4.50;1.17;;;;;;;;;;4995555;28;20220;-72
2021/11/22 12:23:13;;;;;;;5.73;0.80;;;;;;;;;;4996819;28;21105;-72
2021/11/22 12:25:43;;;;;;;4.33;0.80;;;;;;;;;;4996573;28;20223;-72
2021/11/22 12:28:13;;;;;;;2.13;0.70;;;;;;;;;;5000263;28;20876;-72
2021/11/22 12:30:41;;;;;;;4.20;1.33;;;;;;;;;;5000661;28;20206;-72
2021/11/22 12:33:30;;;;;;;6.07;1.23;;;;;;;;;;4999483;28;20685;-72
2021/11/22 12:36:00;;;;;;;5.63;1.20;;;;;;;;;;5001133;28;20212;-72
2021/11/22 12:38:29;;;;;;;2.13;0.80;;;;;;;;;;4999760;28;20219;-72
2021/11/22 12:40:58;;;;;;;4.73;0.80;;;;;;;;;;5001222;28;20480;-72
2021/11/22 12:43:40;;;;;;;1.90;0.70;;;;;;;;;;4998520;28;20215;-72
2021/11/22 12:46:08;;;;;;;3.60;0.70;;;;;;;;;;5000294;28;20244;-72
2021/11/22 12:48:37;;;;;;;2.97;0.70;;;;;;;;;;4999533;28;20328;-72
2021/11/22 12:51:06;;;;;;;1.87;0.70;;;;;;;;;;4999555;28;20763;-72
2021/11/22 12:53:35;;;;;;;2.27;0.50;;;;;;;;;;5000129;28;20285;-72
2021/11/22 12:56:03;;;;;;;2.83;0.60;;;;;;;;;;5000015;28;20215;-72
2021/11/22 12:58:31;;;;;;;2.13;0.83;;;;;;;;;;4999983;28;20214;-72
2021/11/22 13:00:59;;;;;;;4.07;1.03;;;;;;;;;;4999380;28;20220;-72
2021/11/22 13:03:28;;;;;;;2.80;1.07;;;;;;;;;;4999669;28;20235;-72
2021/11/22 13:06:00;;;;;;;5.90;1.10;;;;;;;;;;4999444;28;20272;-72
2021/11/22 13:08:50;;;;;;;2.90;0.80;;;;;;;;;;5000302;28;20295;-72
2021/11/22 13:11:29;;;;;;;4.97;1.20;;;;;;;;;;4999814;28;20217;-73
2021/11/22 13:14:00;;;;;;;4.90;0.90;;;;;;;;;;4999546;28;20240;-73
2021/11/22 13:16:28;;;;;;;3.60;0.60;;;;;;;;;;4999749;28;20292;-73
2021/11/22 13:18:58;;;;;;;3.67;0.77;;;;;;;;;;4999033;28;20314;-73
2021/11/22 13:21:27;;;;;;;5.03;0.90;;;;;;;;;;5000076;28;20632;-72
2021/11/22 13:24:00;;;;;;;3.40;0.60;;;;;;;;;;4999774;28;20270;-72
2021/11/22 13:26:28;;;;;;;2.47;0.70;;;;;;;;;;4999935;28;20826;-72
2021/11/22 13:28:57;;;;;;;6.13;1.27;;;;;;;;;;4999982;28;20216;-72
2021/11/22 13:31:27;;;;;;;3.43;1.20;;;;;;;;;;5000373;28;20244;-71
2021/11/22 13:33:54;;;;;;;4.53;1.20;;;;;;;;;;4998851;28;20582;-72
2021/11/22 13:36:28;;;;;;;6.00;1.10;;;;;;;;;;5000065;28;20222;-74
2021/11/22 13:38:56;;;;;;;3.60;0.90;;;;;;;;;;4998544;28;20766;-74
2021/11/22 13:41:23;;;;;;;4.83;0.87;;;;;;;;;;4999310;28;20250;-74
2021/11/22 13:43:53;;;;;;;2.80;0.90;;;;;;;;;;5000445;28;20201;-74
2021/11/22 13:46:20;;;;;;;1.77;0.47;;;;;;;;;;4999217;28;20212;-74
2021/11/22 13:48:49;;;;;;;4.37;0.80;;;;;;;;;;4999313;28;20303;-74
2021/11/22 13:51:18;;;;;;;1.97;0.90;;;;;;;;;;4999503;28;20358;-75
2021/11/22 13:53:45;;;;;;;1.97;0.50;;;;;;;;;;4999704;28;20808;-74
2021/11/22 13:56:28;;;;;;;3.80;0.90;;;;;;;;;;4998759;28;20217;-74
2021/11/22 13:58:56;;;;;;;2.07;0.70;;;;;;;;;;5000114;28;20687;-72
2021/11/22 14:01:24;;;;;;;3.73;0.77;;;;;;;;;;4998277;28;20288;-72
2021/11/22 14:03:54;;;;;;;2.33;0.63;;;;;;;;;;4999335;28;20226;-72
2021/11/22 14:06:22;;;;;;;2.13;0.47;;;;;;;;;;4999180;28;20214;-72
2021/11/22 14:08:52;;;;;;;2.23;0.53;;;;;;;;;;4999512;28;20215;-72
2021/11/22 14:11:24;;;;;;;2.33;0.70;;;;;;;;;;4999469;28;20680;-72
2021/11/22 14:13:52;;;;;;;3.00;0.87;;;;;;;;;;4999416;28;20229;-72
2021/11/22 14:16:21;;;;;;;3.70;1.10;;;;;;;;;;4999306;28;20567;-72
2021/11/22 14:18:48;;;;;;;7.87;1.10;;;;;;;;;;4997867;28;20241;-72
2021/11/22 14:21:25;;;;;;;2.30;0.80;;;;;;;;;;4998932;28;20252;-72
2021/11/22 14:24:06;;;;;;;3.73;0.73;;;;;;;;;;4997930;28;20243;-72
2021/11/22 14:26:35;;;;;;;5.53;0.87;;;;;;;;;;4998937;28;20210;-73
2021/11/22 14:29:10;;;;;;;3.30;0.60;;;;;;;;;;4999395;28;20583;-72
2021/11/22 14:31:41;;;;;;;3.83;0.70;;;;;;;;;;4998283;28;20225;-73
2021/11/22 14:34:08;;;;;;;6.87;0.83;;;;;;;;;;4998235;28;20240;-72
2021/11/22 14:36:37;;;;;;;6.23;0.57;;;;;;;;;;4998814;28;20292;-75
2021/11/22 14:39:03;;;;;;;5.07;0.73;;;;;;;;;;4999316;28;20572;-73
2021/11/22 14:41:35;;;;;;;4.43;1.30;;;;;;;;;;4996975;28;20243;-73
2021/11/22 14:44:06;;;;;;;3.23;0.60;;;;;;;;;;4999594;28;20651;-72
2021/11/22 14:46:34;;;;;;;3.57;0.70;;;;;;;;;;4997653;28;20221;-73
2021/11/22 14:49:03;;;;;;;5.63;0.73;;;;;;;;;;4998491;28;21096;-72
2021/11/22 14:51:38;;;;;;;4.43;1.37;;;;;;;;;;4997746;28;20216;-73